Time;durP1;ratioP1;P1;durP2;ratioP2;P2;SDS_P1;SDS_P2;PMS_P1;PMS_P2;Temp;Humidity;BMP_temperature;BMP_pressure;BME280_temperature;BME280_humidity;BME280_pressure;Samples;Min_cycle;Max_cycle;Signal;HPM_P1;HPM_P2
2022/06/25 00:00:21;;;;;;;2.00;1.20;;;;;;;24.75;50.11;100805.84;5064900;28;20020;-59
2022/06/25 00:02:47;;;;;;;1.73;1.45;;;;;;;24.74;50.00;100810.47;5065089;28;20474;-59
2022/06/25 00:05:27;;;;;;;2.35;1.25;;;;;;;24.74;50.17;100798.75;5065007;28;20028;-59
2022/06/25 00:07:52;;;;;;;3.58;1.15;;;;;;;24.73;49.99;100806.06;5064512;28;20028;-58
2022/06/25 00:10:17;;;;;;;2.03;1.10;;;;;;;24.73;50.05;100811.50;5069953;28;20024;-59
2022/06/25 00:12:43;;;;;;;2.42;1.30;;;;;;;24.71;50.03;100807.31;5084642;28;20052;-59
2022/06/25 00:15:08;;;;;;;2.67;1.27;;;;;;;24.72;49.98;100815.25;5085271;28;20047;-60
2022/06/25 00:17:34;;;;;;;1.55;1.20;;;;;;;24.65;50.09;100811.72;5086780;28;20024;-59
2022/06/25 00:19:59;;;;;;;2.63;1.20;;;;;;;24.73;50.08;100827.81;5088938;28;20028;-59
2022/06/25 00:22:25;;;;;;;3.42;1.10;;;;;;;24.71;50.06;100827.19;5088651;28;20031;-59
2022/06/25 00:24:50;;;;;;;2.20;1.20;;;;;;;24.64;50.00;100816.31;5088320;28;20052;-59
2022/06/25 00:27:15;;;;;;;1.20;1.10;;;;;;;24.70;49.92;100820.06;5088543;28;20070;-59
2022/06/25 00:29:41;;;;;;;2.00;1.00;;;;;;;24.71;50.01;100826.34;5088919;28;20016;-59
2022/06/25 00:32:09;;;;;;;2.25;1.10;;;;;;;24.69;50.10;100824.69;5088653;28;20117;-59
2022/06/25 00:34:35;;;;;;;2.72;1.23;;;;;;;24.69;50.03;100829.28;5088682;28;20039;-59
2022/06/25 00:37:01;;;;;;;1.17;1.00;;;;;;;24.66;49.98;100818.81;5088446;28;20024;-59
2022/06/25 00:39:26;;;;;;;1.60;1.15;;;;;;;24.68;49.95;100824.91;5087672;28;20048;-59
2022/06/25 00:41:51;;;;;;;1.38;1.05;;;;;;;24.68;49.96;100824.91;5088445;28;20046;-59
2022/06/25 00:44:16;;;;;;;1.70;1.10;;;;;;;24.66;50.08;100825.09;5087136;28;20016;-59
2022/06/25 00:46:45;;;;;;;1.45;1.30;;;;;;;24.67;49.93;100825.94;5087077;28;20028;-59
2022/06/25 00:49:10;;;;;;;;;;;;;;;24.66;49.92;100819.66;5088843;28;20048;-59
2022/06/25 00:51:37;;;;;;;1.23;1.10;;;;;;;24.58;50.11;100819.03;5088069;28;19919;-59
2022/06/25 00:54:04;;;;;;;1.52;1.05;;;;;;;24.64;49.66;100829.91;5087913;28;20353;-59
2022/06/25 00:56:33;;;;;;;2.30;1.20;;;;;;;24.63;49.86;100821.94;5086518;28;20046;-59
2022/06/25 00:59:02;;;;;;;3.47;1.20;;;;;;;24.61;50.13;100824.06;5088199;28;20033;-59
2022/06/25 01:01:28;;;;;;;1.48;1.05;;;;;;;24.62;49.94;100826.56;5083796;28;20029;-59
2022/06/25 01:03:53;;;;;;;2.50;1.33;;;;;;;24.61;49.96;100826.78;5076400;28;20055;-59
2022/06/25 01:06:18;;;;;;;1.75;1.30;;;;;;;24.63;49.93;100835.53;5081908;28;20024;-59
2022/06/25 01:08:44;;;;;;;1.38;1.13;;;;;;;24.61;50.06;100830.31;5067692;28;20473;-59
2022/06/25 01:11:11;;;;;;;1.70;1.42;;;;;;;24.62;49.92;100828.44;5078392;28;20031;-59
2022/06/25 01:13:36;;;;;;;1.88;1.00;;;;;;;24.61;49.95;100833.03;5087751;28;20020;-59
2022/06/25 01:16:01;;;;;;;1.95;1.52;;;;;;;24.58;50.01;100832.63;5086492;28;20048;-59
2022/06/25 01:18:26;;;;;;;1.65;1.42;;;;;;;24.61;49.88;100840.38;5087619;28;20024;-59
2022/06/25 01:20:52;;;;;;;2.53;1.35;;;;;;;24.58;49.84;100838.88;5067681;28;20036;-58
2022/06/25 01:23:17;;;;;;;1.77;1.20;;;;;;;24.58;49.80;100851.66;5067321;28;20477;-59
2022/06/25 01:25:42;;;;;;;1.25;1.13;;;;;;;24.59;49.79;100847.88;5067387;28;20027;-60
2022/06/25 01:28:08;;;;;;;1.75;1.35;;;;;;;24.59;49.84;100851.44;5067417;28;20025;-59
2022/06/25 01:30:34;;;;;;;1.80;1.23;;;;;;;24.58;49.97;100852.47;5067148;28;20025;-59
2022/06/25 01:32:59;;;;;;;1.42;1.20;;;;;;;24.57;49.65;100858.97;5067719;28;20048;-59
2022/06/25 01:35:25;;;;;;;1.40;1.10;;;;;;;24.56;49.79;100857.31;5066222;28;20057;-59
2022/06/25 01:37:50;;;;;;;1.88;1.38;;;;;;;24.57;49.72;100866.28;5086896;28;20488;-59
2022/06/25 01:40:16;;;;;;;2.03;1.20;;;;;;;24.57;49.68;100863.56;5086897;28;20037;-59
2022/06/25 01:42:59;;;;;;;2.22;1.40;;;;;;;24.56;49.73;100868.19;5087118;28;20024;-59
2022/06/25 01:45:29;;;;;;;2.00;1.10;;;;;;;24.56;49.75;100861.91;5087380;28;20025;-59
2022/06/25 01:47:55;;;;;;;1.33;1.13;;;;;;;24.55;49.62;100861.06;5069088;28;20039;-59
2022/06/25 01:50:20;;;;;;;1.90;1.30;;;;;;;24.44;49.64;100845.38;5087129;28;20025;-59
2022/06/25 01:52:46;;;;;;;1.98;1.30;;;;;;;24.55;49.56;100862.94;5087426;28;20112;-59
2022/06/25 01:55:12;;;;;;;2.67;1.50;;;;;;;24.54;49.69;100867.53;5086453;28;20029;-59
2022/06/25 01:57:38;;;;;;;2.90;1.50;;;;;;;24.53;49.71;100874.00;5087086;28;20020;-59
2022/06/25 02:00:10;;;;;;;2.97;1.30;;;;;;;24.54;49.82;100883.00;5086924;28;20115;-59
2022/06/25 02:02:37;;;;;;;2.65;1.42;;;;;;;24.53;49.56;100884.88;5087304;28;20035;-59
2022/06/25 02:05:04;;;;;;;1.35;1.02;;;;;;;24.46;49.60;100878.59;5086900;28;20016;-59
2022/06/25 02:07:29;;;;;;;1.80;1.23;;;;;;;24.51;49.69;100877.97;5086780;28;20028;-59
2022/06/25 02:09:54;;;;;;;1.00;0.88;;;;;;;24.51;49.72;100881.56;5084162;28;20044;-59
2022/06/25 02:12:19;;;;;;;2.53;1.30;;;;;;;24.49;49.65;100882.78;5066451;28;20029;-60
2022/06/25 02:14:45;;;;;;;2.20;1.20;;;;;;;24.50;49.68;100888.00;5066932;28;20543;-59
2022/06/25 02:17:10;;;;;;;1.92;1.30;;;;;;;24.49;49.65;100882.78;5066619;28;20048;-59
2022/06/25 02:19:35;;;;;;;1.90;1.30;;;;;;;24.49;49.59;100883.63;5066736;28;20017;-59
2022/06/25 02:22:01;;;;;;;2.45;1.17;;;;;;;24.49;49.49;100890.94;5048726;28;20088;-59
2022/06/25 02:24:26;;;;;;;2.33;1.63;;;;;;;24.46;49.46;100889.47;5066037;28;20031;-59
2022/06/25 02:26:51;;;;;;;2.85;1.40;;;;;;;24.48;49.65;100895.56;5065305;28;20055;-59
2022/06/25 02:29:16;;;;;;;1.60;1.30;;;;;;;24.39;49.39;100883.19;5066622;28;20458;-59
2022/06/25 02:31:42;;;;;;;1.77;1.20;;;;;;;24.47;49.52;100904.75;5066321;28;20056;-59
2022/06/25 02:34:07;;;;;;;2.22;1.42;;;;;;;24.47;49.48;100896.59;5066520;28;20083;-59
2022/06/25 02:36:32;;;;;;;1.83;1.38;;;;;;;24.46;49.77;100911.22;5065814;28;20033;-59
2022/06/25 02:38:57;;;;;;;1.38;1.10;;;;;;;24.46;49.49;100913.94;5065520;28;20021;-59
2022/06/25 02:41:23;;;;;;;1.60;1.20;;;;;;;24.45;49.60;100912.25;5065372;28;20051;-59
2022/06/25 02:43:48;;;;;;;2.67;1.48;;;;;;;24.45;49.71;100914.97;5065632;28;20032;-59
2022/06/25 02:46:13;;;;;;;2.65;1.70;;;;;;;24.44;49.67;100911.44;5065901;28;20036;-59
2022/06/25 02:48:39;;;;;;;2.45;1.20;;;;;;;24.43;49.54;100917.91;5066043;28;20029;-59
2022/06/25 02:51:04;;;;;;;3.72;1.70;;;;;;;24.43;49.63;100919.78;5065839;28;20028;-59
2022/06/25 02:53:29;;;;;;;2.45;1.55;;;;;;;24.42;49.44;100915.38;5065559;28;20054;-59
2022/06/25 02:58:54;;;;;;;1.85;1.20;;;;;;;24.40;49.57;100931.91;5065822;28;20059;-59
2022/06/25 03:01:19;;;;;;;3.10;1.65;;;;;;;24.41;49.64;100932.72;5065615;28;20025;-59
2022/06/25 03:03:45;;;;;;;2.83;1.50;;;;;;;24.40;49.47;100928.34;5066116;28;20084;-59
2022/06/25 03:06:10;;;;;;;2.08;1.52;;;;;;;24.39;49.56;100930.22;5065505;28;20032;-59
2022/06/25 03:08:36;;;;;;;3.05;1.70;;;;;;;24.40;49.59;100931.06;5065250;28;20024;-59
2022/06/25 03:11:01;;;;;;;2.20;1.40;;;;;;;24.37;49.53;100931.44;5077255;28;20048;-59
2022/06/25 03:13:27;;;;;;;3.47;1.77;;;;;;;24.37;49.64;100939.59;5085280;28;20050;-59
2022/06/25 03:15:52;;;;;;;3.42;2.00;;;;;;;24.37;49.52;100943.16;5085744;28;20047;-59
2022/06/25 03:18:18;;;;;;;1.35;1.25;;;;;;;24.37;49.59;100937.72;5085681;28;20501;-59
2022/06/25 03:20:43;;;;;;;3.05;1.35;;;;;;;24.37;49.39;100937.72;5085508;28;20089;-59
2022/06/25 03:23:08;;;;;;;2.72;1.42;;;;;;;24.36;49.48;100936.03;5085364;28;20031;-58
2022/06/25 03:25:33;;;;;;;2.50;1.63;;;;;;;24.34;49.13;100929.97;5085430;28;20092;-59
2022/06/25 03:27:58;;;;;;;2.40;1.40;;;;;;;24.35;49.42;100944.41;5085292;28;20021;-59
2022/06/25 03:30:24;;;;;;;2.42;1.40;;;;;;;24.33;49.33;100938.31;5085213;28;20055;-59
2022/06/25 03:32:49;;;;;;;2.50;1.33;;;;;;;24.31;49.51;100949.41;5085476;28;20024;-59
2022/06/25 03:35:14;;;;;;;2.92;1.45;;;;;;;24.34;49.41;100950.84;5085194;28;20092;-59
2022/06/25 03:37:40;;;;;;;3.47;1.58;;;;;;;24.34;49.54;100957.16;5085093;28;20025;-59
2022/06/25 03:40:06;;;;;;;2.95;1.40;;;;;;;24.29;49.44;100948.75;5084625;28;20040;-59
2022/06/25 03:42:31;;;;;;;2.33;1.38;;;;;;;24.34;49.43;100956.28;5085216;28;20024;-59
2022/06/25 03:44:56;;;;;;;1.83;1.20;;;;;;;24.32;49.38;100956.50;5085166;28;20435;-59
2022/06/25 03:47:21;;;;;;;1.48;1.10;;;;;;;24.32;49.25;100956.50;5084878;28;20060;-59
2022/06/25 03:49:47;;;;;;;3.45;1.30;;;;;;;24.31;49.39;100957.56;5085319;28;20024;-59
2022/06/25 03:52:12;;;;;;;2.03;1.50;;;;;;;24.31;49.34;100954.84;5085237;28;20048;-59
2022/06/25 03:54:37;;;;;;;3.15;1.40;;;;;;;24.32;49.38;100958.38;5084837;28;20025;-59
2022/06/25 03:57:03;;;;;;;1.98;1.15;;;;;;;24.26;49.45;100953.78;5083893;28;20035;-59
2022/06/25 03:59:29;;;;;;;1.20;1.00;;;;;;;24.31;49.38;100962.16;5085323;28;20052;-59
2022/06/25 04:01:54;;;;;;;2.08;1.23;;;;;;;24.29;49.44;100967.78;5085071;28;20626;-59
2022/06/25 04:04:19;;;;;;;1.75;1.15;;;;;;;24.28;49.39;100963.38;5085074;28;20028;-59
2022/06/25 04:06:45;;;;;;;1.35;1.23;;;;;;;24.26;49.42;100967.38;5084866;28;20047;-59
2022/06/25 04:09:10;;;;;;;1.88;1.40;;;;;;;24.28;49.22;100974.25;5084873;28;20025;-59
2022/06/25 04:11:35;;;;;;;1.50;1.13;;;;;;;24.28;49.35;100966.09;5068325;28;20093;-58
2022/06/25 04:14:01;;;;;;;1.58;1.20;;;;;;;24.28;49.36;100976.13;5063598;28;20036;-58
2022/06/25 04:16:26;;;;;;;2.33;1.17;;;;;;;24.26;49.23;100967.38;5064694;28;20024;-58
2022/06/25 04:18:52;;;;;;;2.50;1.35;;;;;;;24.26;49.19;100964.66;5064931;28;20119;-58
2022/06/25 04:21:17;;;;;;;2.42;1.20;;;;;;;24.25;49.22;100966.50;5064502;28;20303;-58
2022/06/25 04:23:42;;;;;;;2.03;1.15;;;;;;;24.25;49.26;100965.66;5064467;28;20048;-58
2022/06/25 04:26:07;;;;;;;2.60;1.42;;;;;;;24.25;49.43;100969.22;5064512;28;20105;-60
2022/06/25 04:31:17;;;;;;;1.30;1.20;;;;;;;24.13;49.11;100954.56;5064592;28;20051;-60
2022/06/25 04:33:42;;;;;;;4.18;1.65;;;;;;;24.21;49.19;100965.22;5064700;28;20029;-60
2022/06/25 04:36:07;;;;;;;2.97;1.40;;;;;;;24.23;49.13;100979.47;5064408;28;20033;-58
2022/06/25 04:38:33;;;;;;;3.20;1.60;;;;;;;24.23;49.12;100975.91;5064385;28;20421;-59
2022/06/25 04:40:58;;;;;;;2.45;1.20;;;;;;;24.19;49.19;100973.59;5064611;28;20128;-58
2022/06/25 04:43:23;;;;;;;2.40;1.20;;;;;;;24.23;49.05;100989.50;5064456;28;20040;-58
2022/06/25 04:45:49;;;;;;;1.48;1.00;;;;;;;24.23;49.24;100990.34;5064844;28;20537;-57
2022/06/25 04:48:14;;;;;;;1.48;1.25;;;;;;;24.22;49.08;100991.38;5064541;28;20031;-58
2022/06/25 04:50:42;;;;;;;3.53;1.77;;;;;;;24.23;49.04;100986.78;5064925;28;20463;-59
2022/06/25 04:53:07;;;;;;;1.92;1.30;;;;;;;24.19;49.10;100994.50;5064354;28;20029;-58
2022/06/25 04:55:33;;;;;;;2.03;1.38;;;;;;;24.23;49.14;101000.38;5064163;28;20056;-59
2022/06/25 04:57:58;;;;;;;1.70;1.30;;;;;;;24.22;49.13;101007.69;5064406;28;20034;-59
2022/06/25 05:00:23;;;;;;;2.72;1.50;;;;;;;24.18;49.05;101000.97;5064346;28;20455;-58
2022/06/25 05:02:49;;;;;;;1.95;1.25;;;;;;;24.21;49.12;101016.84;5064628;28;20021;-59
2022/06/25 05:05:14;;;;;;;2.00;1.13;;;;;;;24.22;49.09;101009.56;5066905;28;20029;-59
2022/06/25 05:07:40;;;;;;;1.67;1.10;;;;;;;24.21;49.05;101011.41;5065170;28;20029;-59
2022/06/25 05:10:05;;;;;;;3.25;1.77;;;;;;;24.21;48.99;101016.84;5071066;28;20024;-59
2022/06/25 05:15:14;;;;;;;1.88;0.93;;;;;;;24.20;49.07;101015.19;5088027;28;20039;-59
2022/06/25 05:17:40;;;;;;;1.27;1.00;;;;;;;24.21;49.08;101016.84;5087348;28;20025;-59
2022/06/25 05:20:06;;;;;;;2.63;1.20;;;;;;;24.20;48.95;101018.72;5087836;28;20024;-59
2022/06/25 05:22:31;;;;;;;1.90;1.23;;;;;;;24.22;48.96;101023.16;5087785;28;20631;-59
2022/06/25 05:24:56;;;;;;;2.95;1.33;;;;;;;24.19;48.76;101022.50;5087263;28;20036;-58
2022/06/25 05:27:23;;;;;;;1.95;1.00;;;;;;;24.14;49.05;101016.81;5087258;28;20025;-59
2022/06/25 05:29:48;;;;;;;1.75;1.25;;;;;;;24.23;49.06;101020.22;5087859;28;20084;-59
2022/06/25 05:32:13;;;;;;;1.83;1.38;;;;;;;24.22;48.84;101031.28;5087453;28;20024;-59
2022/06/25 05:34:39;;;;;;;2.90;1.33;;;;;;;24.22;48.94;101034.00;5087334;28;20107;-59
2022/06/25 05:37:04;;;;;;;1.30;1.00;;;;;;;24.22;48.88;101032.13;5087408;28;20051;-58
2022/06/25 05:39:29;;;;;;;1.70;1.08;;;;;;;24.21;49.03;101038.59;5086788;28;20056;-59
2022/06/25 05:41:55;;;;;;;2.08;1.33;;;;;;;24.22;48.95;101048.44;5086954;28;20024;-58
2022/06/25 05:44:20;;;;;;;2.80;1.10;;;;;;;24.22;48.94;101042.16;5087209;28;20056;-59
2022/06/25 05:46:45;;;;;;;2.42;1.10;;;;;;;24.23;48.93;101043.84;5086810;28;20469;-58
2022/06/25 05:49:10;;;;;;;2.05;1.13;;;;;;;24.22;48.95;101048.44;5085995;28;20028;-58
2022/06/25 05:51:36;;;;;;;2.95;1.60;;;;;;;24.23;48.78;101049.28;5086753;28;20082;-59
2022/06/25 05:54:01;;;;;;;1.42;0.90;;;;;;;24.23;48.88;101049.28;5086611;28;20013;-59
2022/06/25 05:56:26;;;;;;;2.35;0.90;;;;;;;24.22;48.75;101048.44;5086712;28;20048;-59
2022/06/25 05:58:52;;;;;;;1.75;1.05;;;;;;;24.07;49.05;101023.25;5087082;28;20028;-59
2022/06/25 06:01:17;;;;;;;1.98;1.10;;;;;;;24.23;48.82;101052.00;5086731;28;20031;-59
2022/06/25 06:03:42;;;;;;;1.88;1.02;;;;;;;24.23;48.89;101050.09;5086865;28;20059;-59
2022/06/25 06:06:07;;;;;;;1.38;1.10;;;;;;;24.23;48.88;101055.53;5086478;28;20036;-59
2022/06/25 06:08:33;;;;;;;1.63;1.30;;;;;;;24.24;49.19;101050.94;5086552;28;20017;-59
2022/06/25 06:10:58;;;;;;;0.90;0.80;;;;;;;24.24;49.00;101048.22;5086881;28;20021;-59
2022/06/25 06:13:23;;;;;;;2.05;1.30;;;;;;;24.24;48.95;101054.50;5086144;28;20050;-59
2022/06/25 06:15:48;;;;;;;1.90;1.30;;;;;;;24.24;48.69;101062.66;5086651;28;20029;-59
2022/06/25 06:18:14;;;;;;;2.15;1.10;;;;;;;24.25;48.67;101058.03;5086281;28;20625;-59
2022/06/25 06:20:39;;;;;;;2.25;1.00;;;;;;;24.26;48.62;101065.19;5086364;28;20033;-59
2022/06/25 06:23:05;;;;;;;1.88;0.95;;;;;;;24.27;48.83;101073.13;5086503;28;20031;-59
2022/06/25 06:25:30;;;;;;;2.20;1.10;;;;;;;24.27;48.73;101070.41;5086042;28;20499;-59
2022/06/25 06:27:55;;;;;;;2.00;1.15;;;;;;;24.24;48.79;101059.94;5086411;28;20076;-59
2022/06/25 06:30:21;;;;;;;1.98;1.23;;;;;;;24.28;48.66;101060.38;5086322;28;20035;-58
2022/06/25 06:32:46;;;;;;;2.15;1.10;;;;;;;24.29;48.71;101070.19;5086286;28;20033;-59
2022/06/25 06:35:12;;;;;;;4.15;1.77;;;;;;;24.29;48.79;101070.19;5086263;28;20028;-59
2022/06/25 06:37:38;;;;;;;1.77;1.20;;;;;;;24.27;48.86;101070.41;5086029;28;20020;-59
2022/06/25 06:40:05;;;;;;;2.95;1.38;;;;;;;24.29;48.96;101072.91;5085427;28;20041;-59
2022/06/25 06:42:30;;;;;;;2.25;1.33;;;;;;;24.29;48.83;101075.63;5085908;28;20025;-59
2022/06/25 06:44:56;;;;;;;2.13;1.20;;;;;;;24.28;48.86;101077.50;5086162;28;20033;-59
2022/06/25 06:47:21;;;;;;;4.15;1.50;;;;;;;24.28;48.90;101077.50;5085793;28;20033;-59
2022/06/25 06:49:46;;;;;;;2.08;1.20;;;;;;;24.28;48.95;101082.09;5086092;28;20030;-59
2022/06/25 06:52:11;;;;;;;2.65;1.30;;;;;;;24.28;48.89;101079.38;5085706;28;20028;-59
2022/06/25 06:54:37;;;;;;;1.88;1.20;;;;;;;24.26;48.91;101076.88;5085264;28;20547;-59
2022/06/25 06:57:02;;;;;;;1.90;1.27;;;;;;;24.28;48.85;101079.38;5084092;28;20032;-58
2022/06/25 06:59:28;;;;;;;1.90;1.20;;;;;;;24.22;49.01;101070.16;5085576;28;20071;-59
2022/06/25 07:01:53;;;;;;;4.40;1.45;;;;;;;24.20;48.77;101066.81;5085071;28;20055;-58
2022/06/25 07:04:18;;;;;;;1.20;1.00;;;;;;;24.28;48.93;101069.34;5085564;28;20029;-59
2022/06/25 07:06:43;;;;;;;2.92;1.52;;;;;;;24.29;48.95;101081.06;5085247;28;20028;-59
2022/06/25 07:09:09;;;;;;;1.95;1.20;;;;;;;24.29;49.16;101079.19;5085045;28;20086;-58
2022/06/25 07:11:34;;;;;;;2.30;1.13;;;;;;;24.30;48.73;101083.59;5069266;28;20021;-58
2022/06/25 07:14:01;;;;;;;2.03;1.25;;;;;;;24.31;49.00;101079.00;5065136;28;20052;-58
2022/06/25 07:16:27;;;;;;;1.65;0.98;;;;;;;24.32;49.20;101086.09;5065555;28;20497;-58
2022/06/25 07:18:55;;;;;;;1.08;0.98;;;;;;;24.26;49.10;101067.91;5065742;28;20032;-59
2022/06/25 07:21:20;;;;;;;1.80;1.10;;;;;;;24.34;49.13;101075.84;5065296;28;20095;-58
2022/06/25 07:23:45;;;;;;;2.35;1.10;;;;;;;24.34;49.13;101079.44;5065079;28;20029;-58
2022/06/25 07:26:11;;;;;;;2.10;1.23;;;;;;;24.33;49.04;101085.06;5064810;28;20478;-58
2022/06/25 07:28:36;;;;;;;2.10;1.17;;;;;;;24.36;49.29;101080.06;5065270;28;20025;-59
2022/06/25 07:31:01;;;;;;;1.50;1.20;;;;;;;24.38;49.11;101088.03;5065416;28;20382;-59
2022/06/25 07:33:29;;;;;;;1.92;1.00;;;;;;;24.38;49.31;101079.88;5065203;28;20028;-59
2022/06/25 07:35:55;;;;;;;1.80;0.93;;;;;;;24.38;49.14;101086.19;5065363;28;20090;-58
2022/06/25 07:38:20;;;;;;;1.13;0.98;;;;;;;24.38;49.33;101085.31;5064636;28;20037;-59
2022/06/25 07:40:45;;;;;;;1.30;1.08;;;;;;;24.38;49.10;101079.88;5064687;28;20371;-59
2022/06/25 07:43:10;;;;;;;2.78;1.13;;;;;;;24.38;49.08;101086.19;5064721;28;20033;-59
2022/06/25 07:45:35;;;;;;;1.73;1.00;;;;;;;24.40;49.11;101092.25;5065152;28;20029;-59
2022/06/25 07:48:01;;;;;;;2.28;0.80;;;;;;;24.40;49.16;101086.81;5064706;28;20017;-59
2022/06/25 07:53:10;;;;;;;2.08;1.08;;;;;;;24.44;49.13;101090.81;5065175;28;20124;-59
2022/06/25 07:55:35;;;;;;;3.30;1.20;;;;;;;24.46;49.19;101087.88;5064551;28;20021;-59
2022/06/25 07:58:01;;;;;;;1.58;1.30;;;;;;;24.47;48.98;101088.72;5064829;28;20029;-59
2022/06/25 08:00:26;;;;;;;1.25;1.05;;;;;;;24.47;48.92;101080.56;5065187;28;20079;-59
2022/06/25 08:02:52;;;;;;;1.67;0.90;;;;;;;24.50;48.78;101093.75;5065251;28;20029;-59
2022/06/25 08:05:18;;;;;;;1.70;1.00;;;;;;;24.51;48.86;101095.41;5064966;28;20079;-59
2022/06/25 08:07:45;;;;;;;1.65;0.90;;;;;;;24.53;48.84;101087.91;5065375;28;20096;-59
2022/06/25 08:10:13;;;;;;;2.80;1.35;;;;;;;24.53;48.94;101088.75;5072929;28;20020;-59
2022/06/25 08:12:38;;;;;;;1.45;0.82;;;;;;;24.54;49.08;101090.44;5092084;28;20029;-59
2022/06/25 08:15:06;;;;;;;1.38;1.00;;;;;;;24.55;49.12;101093.97;5073772;28;20055;-59
2022/06/25 08:17:31;;;;;;;2.10;1.23;;;;;;;24.57;49.01;101091.91;5090875;28;20080;-59
2022/06/25 08:19:56;;;;;;;2.75;1.20;;;;;;;24.57;49.05;101098.19;5085077;28;20024;-59
2022/06/25 08:22:21;;;;;;;1.60;1.20;;;;;;;24.57;48.94;101092.75;5084927;28;20056;-58
2022/06/25 08:24:47;;;;;;;2.78;0.90;;;;;;;24.57;48.89;101091.91;5084414;28;20089;-59
2022/06/25 08:27:12;;;;;;;1.70;1.08;;;;;;;24.57;48.98;101092.75;5084681;28;20111;-58
2022/06/25 08:29:37;;;;;;;1.63;0.95;;;;;;;24.55;48.99;101094.84;5085014;28;20048;-59
2022/06/25 08:32:03;;;;;;;1.40;0.82;;;;;;;24.58;49.09;101104.47;5083679;28;20095;-59
2022/06/25 08:34:28;;;;;;;1.20;0.90;;;;;;;24.58;48.98;101104.47;5084315;28;20051;-57
2022/06/25 08:36:54;;;;;;;3.63;1.42;;;;;;;24.59;49.00;101100.69;5084454;28;20029;-58
2022/06/25 08:39:19;;;;;;;2.03;1.20;;;;;;;24.51;49.27;101088.13;5085080;28;20036;-59
2022/06/25 08:41:45;;;;;;;2.30;1.00;;;;;;;24.60;49.04;101097.78;5088095;28;20031;-58
2022/06/25 08:44:10;;;;;;;1.45;1.02;;;;;;;24.62;49.04;101101.13;5088012;28;20056;-59
2022/06/25 08:46:37;;;;;;;2.03;0.90;;;;;;;24.61;49.08;101104.91;5088170;28;20028;-59
2022/06/25 08:49:02;;;;;;;1.80;1.10;;;;;;;24.62;49.08;101098.41;5088084;28;20040;-59
2022/06/25 08:51:28;;;;;;;1.02;0.93;;;;;;;24.63;49.12;101108.25;5087924;28;20047;-59
2022/06/25 08:53:54;;;;;;;1.42;0.70;;;;;;;24.64;49.16;101098.22;5087761;28;20038;-59
2022/06/25 08:56:20;;;;;;;1.27;0.90;;;;;;;24.64;49.17;101099.06;5088030;28;20384;-59
2022/06/25 08:58:45;;;;;;;4.38;1.83;;;;;;;24.63;49.15;101093.81;5088223;28;20028;-59
2022/06/25 09:01:10;;;;;;;1.08;0.95;;;;;;;24.62;49.11;101087.53;5087840;28;20032;-59
2022/06/25 09:03:37;;;;;;;1.85;0.90;;;;;;;24.61;49.05;101091.31;5087831;28;20064;-58
2022/06/25 09:06:16;;;;;;;1.25;0.82;;;;;;;24.68;48.92;101110.38;5086695;28;20024;-59
2022/06/25 09:08:42;;;;;;;1.73;0.90;;;;;;;24.69;48.99;101112.06;5087604;28;20021;-58
2022/06/25 09:11:08;;;;;;;1.20;0.82;;;;;;;24.69;48.95;101103.91;5075410;28;20017;-58
2022/06/25 09:13:33;;;;;;;1.88;0.85;;;;;;;24.68;48.99;101103.06;5067335;28;20150;-58
2022/06/25 09:15:59;;;;;;;1.88;1.30;;;;;;;24.71;48.75;101109.94;5066432;28;20025;-58
2022/06/25 09:18:24;;;;;;;1.95;0.82;;;;;;;24.71;48.91;101104.53;5067313;28;20052;-58
2022/06/25 09:21:09;;;;;;;2.22;1.00;;;;;;;24.71;48.65;101112.69;5067464;28;20036;-59
2022/06/25 09:23:54;;;;;;;3.08;1.20;;;;;;;24.72;48.96;101102.63;5067291;28;20020;-59
2022/06/25 09:26:19;;;;;;;2.30;1.10;;;;;;;24.72;48.80;101098.03;5066939;28;20496;-58
2022/06/25 09:28:46;;;;;;;1.55;0.80;;;;;;;24.73;48.84;101104.34;5067612;28;20053;-59
2022/06/25 09:31:11;;;;;;;1.35;0.98;;;;;;;24.74;48.86;101106.00;5067437;28;20474;-59
2022/06/25 09:33:38;;;;;;;1.92;0.80;;;;;;;24.74;48.90;101100.56;5067601;28;20029;-59
2022/06/25 09:36:04;;;;;;;3.25;0.70;;;;;;;24.74;48.89;101101.41;5067256;28;20035;-59
2022/06/25 09:38:31;;;;;;;3.25;1.33;;;;;;;24.76;48.84;101112.91;5065483;28;20029;-57
2022/06/25 09:40:57;;;;;;;1.23;0.80;;;;;;;24.76;48.79;101114.78;5065687;28;20056;-59
2022/06/25 09:43:35;;;;;;;1.13;0.77;;;;;;;24.77;48.78;101119.22;5066966;28;20025;-59
2022/06/25 09:46:05;;;;;;;1.38;0.93;;;;;;;24.77;48.94;101113.75;5067115;28;20078;-59
2022/06/25 09:48:33;;;;;;;0.90;0.70;;;;;;;24.75;48.85;101122.09;5065350;28;20020;-59
2022/06/25 09:51:23;;;;;;;1.10;0.80;;;;;;;24.74;48.91;101117.72;5066530;28;20025;-59
2022/06/25 09:53:53;;;;;;;2.05;0.82;;;;;;;24.74;48.83;101125.03;5065557;28;20025;-59
2022/06/25 09:56:38;;;;;;;1.00;0.63;;;;;;;24.72;48.95;101122.50;5066877;28;20017;-58
2022/06/25 09:59:03;;;;;;;1.60;0.90;;;;;;;24.71;48.83;101120.84;5066979;28;20568;-59
2022/06/25 10:01:31;;;;;;;1.58;0.88;;;;;;;24.71;49.12;101128.16;5066647;28;20033;-59
2022/06/25 10:04:00;;;;;;;1.10;0.73;;;;;;;24.70;48.98;101119.16;5066908;28;20017;-59
2022/06/25 10:06:26;;;;;;;2.08;1.00;;;;;;;24.68;49.02;101126.69;5066396;28;20024;-58
2022/06/25 10:08:55;;;;;;;1.40;1.10;;;;;;;24.66;49.07;101115.16;5066546;28;20021;-59
2022/06/25 10:11:22;;;;;;;;;;;;;;;24.68;49.14;101122.09;5081177;28;20047;-59
2022/06/25 10:13:48;;;;;;;2.13;0.93;;;;;;;24.70;49.06;101116.44;5086270;28;19915;-59
2022/06/25 10:16:16;;;;;;;1.67;0.90;;;;;;;24.71;49.06;101107.25;5086778;28;20025;-59
2022/06/25 10:18:42;;;;;;;2.45;1.20;;;;;;;24.72;49.10;101108.91;5086667;28;20024;-59
2022/06/25 10:21:07;;;;;;;2.47;1.23;;;;;;;24.73;49.04;101113.31;5086224;28;20050;-59
2022/06/25 10:23:33;;;;;;;1.50;0.82;;;;;;;24.67;49.13;101104.06;5084931;28;20024;-59
2022/06/25 10:25:58;;;;;;;1.20;0.50;;;;;;;24.76;49.09;101114.78;5086173;28;20035;-59
2022/06/25 10:28:26;;;;;;;1.40;1.30;;;;;;;24.75;49.09;101118.56;5086211;28;20028;-59
2022/06/25 10:30:53;;;;;;;1.53;0.70;;;;;;;24.73;48.90;101113.31;5086188;28;20043;-59
2022/06/25 10:33:21;;;;;;;1.60;0.77;;;;;;;24.69;49.15;101117.50;5086349;28;20025;-59
2022/06/25 10:35:47;;;;;;;3.30;0.90;;;;;;;24.73;49.01;101131.53;5086143;28;20024;-59
2022/06/25 10:38:18;;;;;;;1.45;0.98;;;;;;;24.72;49.11;101124.38;5085958;28;20029;-59
2022/06/25 10:43:55;;;;;;;1.60;0.80;;;;;;;24.69;49.05;101131.91;5085763;28;20125;-59
2022/06/25 10:46:36;;;;;;;1.42;0.70;;;;;;;24.69;49.05;101131.09;5086180;28;20040;-59
2022/06/25 10:49:10;;;;;;;2.45;0.80;;;;;;;24.69;49.07;101131.09;5086044;28;20025;-59
2022/06/25 10:51:55;;;;;;;1.02;0.70;;;;;;;24.69;49.10;101137.34;5085914;28;20027;-59
2022/06/25 10:54:24;;;;;;;1.52;0.85;;;;;;;24.70;49.06;101138.19;5085476;28;20110;-59
2022/06/25 10:56:52;;;;;;;0.95;0.60;;;;;;;24.70;49.11;101135.47;5085773;28;20028;-59
2022/06/25 10:59:34;;;;;;;1.80;0.90;;;;;;;24.73;49.09;101137.81;5085936;28;20020;-59
2022/06/25 11:02:02;;;;;;;1.25;0.57;;;;;;;24.73;49.16;101124.22;5084824;28;20055;-59
2022/06/25 11:04:29;;;;;;;1.00;0.57;;;;;;;24.75;49.02;101132.97;5085755;28;20036;-59
2022/06/25 11:07:07;;;;;;;1.38;0.68;;;;;;;24.77;49.12;101130.09;5085275;28;20032;-59
2022/06/25 11:09:32;;;;;;;;;;;;;;;24.76;48.99;101129.22;5085844;28;20033;-59
2022/06/25 11:11:58;;;;;;;1.10;0.80;;;;;;;24.77;48.95;101130.09;5085392;28;19919;-59
2022/06/25 11:14:24;;;;;;;0.80;0.57;;;;;;;24.76;49.20;101133.81;5084066;28;20273;-59
2022/06/25 11:16:51;;;;;;;0.82;0.63;;;;;;;24.77;49.07;101138.25;5085335;28;20119;-59
2022/06/25 11:19:18;;;;;;;0.88;0.80;;;;;;;24.76;49.00;101137.38;5085392;28;20524;-59
2022/06/25 11:21:45;;;;;;;1.13;0.63;;;;;;;24.77;48.99;101139.06;5085159;28;20139;-59
2022/06/25 11:24:20;;;;;;;0.90;0.73;;;;;;;24.79;48.99;101136.97;5085195;28;20031;-59
2022/06/25 11:29:52;;;;;;;1.15;0.70;;;;;;;24.78;48.80;101135.31;5085574;28;20032;-59
2022/06/25 11:32:25;;;;;;;1.90;0.77;;;;;;;24.83;48.90;101135.53;5085116;28;20020;-59
2022/06/25 11:34:52;;;;;;;0.93;0.77;;;;;;;24.83;48.92;101132.81;5085564;28;20103;-59
2022/06/25 11:37:18;;;;;;;1.95;0.63;;;;;;;24.85;48.77;101136.19;5084749;28;20024;-59
2022/06/25 11:39:45;;;;;;;0.95;0.50;;;;;;;24.88;48.81;101134.91;5084473;28;20060;-59